Terminal Aerodrome Forecast
Issued by NWS

Home | Current Version | Previous Version | Text Only | Print | Product List | Glossary On
Versions: 1 2 3 4 5 6 7 8 9 10 11 12 13
000
FTUS44 KLUB 252330
TAFCDS
TAF
KCDS 252330Z 2600/2624 35011KT P6SM SCT120 BKN250
     FM260500 02011KT P6SM VCSH BKN070
     FM261000 35015G25KT P6SM OVC015
     FM261900 33014KT P6SM SKC=

USA.gov is the U.S. government's official web portal to all federal, state and local government web resources and services.